createdAt,value
2019-01-10T00:02:58.682Z,5.10
2019-01-10T00:07:53.286Z,5.87
2019-01-10T00:12:48.020Z,6.57
2019-01-10T00:17:42.769Z,7.80
2019-01-10T00:22:37.382Z,6.13
2019-01-10T00:27:31.999Z,4.77
2019-01-10T00:32:26.590Z,3.87
2019-01-10T00:37:21.208Z,4.47
2019-01-10T00:42:15.841Z,5.73
2019-01-10T00:47:10.420Z,8.30
2019-01-10T00:52:05.025Z,5.97
2019-01-10T00:56:59.609Z,7.07
2019-01-10T01:01:54.286Z,4.63
2019-01-10T01:06:48.874Z,6.97
2019-01-10T01:11:43.640Z,6.77
2019-01-10T01:16:38.203Z,5.13
2019-01-10T01:21:32.890Z,5.37
2019-01-10T01:26:27.472Z,4.83
2019-01-10T01:31:22.086Z,3.50
2019-01-10T01:36:16.687Z,5.60
2019-01-10T01:41:11.379Z,5.23
2019-01-10T01:46:07.759Z,5.20
2019-01-10T01:51:02.544Z,4.17
2019-01-10T01:55:57.120Z,4.77
2019-01-10T02:00:51.804Z,7.17
2019-01-10T02:05:46.431Z,6.37
2019-01-10T02:10:41.122Z,6.77
2019-01-10T02:15:35.708Z,5.97
2019-01-10T02:20:30.382Z,5.80
2019-01-10T02:25:25.121Z,5.77
2019-01-10T02:30:25.139Z,5.17
2019-01-10T02:35:20.159Z,4.70
2019-01-10T02:40:15.133Z,5.87
2019-01-10T02:45:13.809Z,3.67
2019-01-10T02:50:15.620Z,4.13
2019-01-10T02:55:11.115Z,5.33
2019-01-10T03:00:15.794Z,3.80
2019-01-10T03:05:10.698Z,6.43
2019-01-10T03:10:09.228Z,5.87
2019-01-10T03:15:04.731Z,6.10
2019-01-10T03:19:59.335Z,4.77
2019-01-10T03:24:53.944Z,5.50
2019-01-10T03:29:48.550Z,4.73
2019-01-10T03:34:43.532Z,7.07
2019-01-10T03:39:38.224Z,8.23
2019-01-10T03:44:34.497Z,6.10
2019-01-10T03:49:29.168Z,5.20
2019-01-10T03:54:23.844Z,4.80
2019-01-10T03:59:18.469Z,6.87
2019-01-10T04:04:13.048Z,5.57
2019-01-10T04:09:08.405Z,5.27
2019-01-10T04:14:03.053Z,7.30
2019-01-10T04:18:57.646Z,7.33
2019-01-10T04:23:53.816Z,5.10
2019-01-10T04:28:48.417Z,9.50
2019-01-10T04:33:43.009Z,9.67
2019-01-10T04:38:37.650Z,7.63
2019-01-10T04:43:32.262Z,5.73
2019-01-10T04:48:26.867Z,6.27
2019-01-10T04:53:21.486Z,6.03
2019-01-10T04:58:16.094Z,6.67
2019-01-10T05:03:10.700Z,8.70
2019-01-10T05:08:05.390Z,5.37
2019-01-10T05:12:59.991Z,7.20
2019-01-10T05:17:54.597Z,9.57
2019-01-10T05:22:49.455Z,9.57
2019-01-10T05:27:44.125Z,9.97
2019-01-10T05:32:38.754Z,8.43
2019-01-10T05:37:33.421Z,8.03
2019-01-10T05:42:28.033Z,8.23
2019-01-10T05:47:22.769Z,13.70
2019-01-10T05:52:17.394Z,14.53
2019-01-10T05:57:11.995Z,10.53
2019-01-10T06:02:06.651Z,11.80
2019-01-10T06:07:01.258Z,10.53
2019-01-10T06:11:55.885Z,9.33
2019-01-10T06:16:50.483Z,10.90
2019-01-10T06:21:45.186Z,9.00
2019-01-10T06:26:39.787Z,10.87
2019-01-10T06:31:34.416Z,10.87
2019-01-10T06:36:35.793Z,8.00
2019-01-10T06:41:31.347Z,9.20
2019-01-10T06:46:25.956Z,7.73
2019-01-10T06:51:20.567Z,8.40
2019-01-10T06:56:15.230Z,8.80
2019-01-10T07:01:09.823Z,9.73
2019-01-10T07:06:04.525Z,9.03
2019-01-10T07:10:59.146Z,9.00
2019-01-10T07:15:53.741Z,7.63
2019-01-10T07:20:48.426Z,8.33
2019-01-10T07:25:43.028Z,10.27
2019-01-10T07:30:37.713Z,12.07
2019-01-10T07:35:32.462Z,10.53
2019-01-10T07:40:27.061Z,7.20
2019-01-10T07:45:24.279Z,7.73
2019-01-10T07:50:23.566Z,7.80
2019-01-10T07:55:18.251Z,9.40
2019-01-10T08:00:19.572Z,13.03
2019-01-10T08:05:14.868Z,9.93
2019-01-10T08:10:16.640Z,9.10
2019-01-10T08:15:19.210Z,10.50
2019-01-10T08:20:14.603Z,8.10
2019-01-10T08:25:11.519Z,5.93
2019-01-10T08:30:22.082Z,6.17
2019-01-10T08:35:22.708Z,9.03
2019-01-10T08:40:17.507Z,5.13
2019-01-10T08:45:21.860Z,6.03
2019-01-10T08:50:23.166Z,6.77
2019-01-10T08:55:17.968Z,7.87
2019-01-10T09:00:16.489Z,8.50
2019-01-10T09:05:12.418Z,9.83
2019-01-10T09:10:17.739Z,7.63
2019-01-10T09:15:12.505Z,6.47
2019-01-10T09:20:11.855Z,6.60
2019-01-10T09:25:07.296Z,7.50
2019-01-10T09:30:10.721Z,7.73
2019-01-10T09:35:06.146Z,6.60
2019-01-10T09:40:00.770Z,7.20
2019-01-10T09:44:55.698Z,5.97
2019-01-10T09:49:50.392Z,7.40
2019-01-10T09:54:49.365Z,12.67
2019-01-10T09:59:50.316Z,7.80
2019-01-10T10:04:48.688Z,8.87
2019-01-10T10:09:43.685Z,7.90
2019-01-10T10:14:40.386Z,11.97
2019-01-10T10:19:40.670Z,8.10
2019-01-10T10:24:36.684Z,6.13
2019-01-10T10:29:31.613Z,7.53
2019-01-10T10:34:26.671Z,7.03
2019-01-10T10:39:21.347Z,6.53
2019-01-10T10:44:15.991Z,6.33
2019-01-10T10:49:13.606Z,6.23
2019-01-10T10:54:09.198Z,6.27
2019-01-10T10:59:06.264Z,6.93
2019-01-10T11:04:00.957Z,5.23
2019-01-10T11:08:55.566Z,7.60
2019-01-10T11:13:50.238Z,7.07
2019-01-10T11:18:45.019Z,6.87
2019-01-10T11:23:39.558Z,9.13
2019-01-10T11:28:34.221Z,7.80
2019-01-10T11:33:28.802Z,9.10
2019-01-10T11:38:25.455Z,7.70
2019-01-10T11:43:20.342Z,8.03
2019-01-10T11:48:14.987Z,6.13
2019-01-10T11:53:09.668Z,8.37
2019-01-10T11:58:04.434Z,7.50
2019-01-10T12:03:00.553Z,8.50
2019-01-10T12:07:57.927Z,6.63
2019-01-10T12:12:53.297Z,8.30
2019-01-10T12:17:59.071Z,6.67
2019-01-10T12:22:54.151Z,7.67
2019-01-10T12:27:49.906Z,6.60
2019-01-10T12:32:44.653Z,8.20
2019-01-10T12:37:39.325Z,6.23
2019-01-10T12:42:33.932Z,7.13
2019-01-10T12:47:28.586Z,5.47
2019-01-10T12:52:23.199Z,4.80
2019-01-10T12:57:18.441Z,6.97
2019-01-10T13:02:13.062Z,6.43
2019-01-10T13:07:07.754Z,5.77
2019-01-10T13:12:02.564Z,6.90
2019-01-10T13:16:57.231Z,8.20
2019-01-10T13:21:52.086Z,5.97
2019-01-10T13:26:46.900Z,7.73
2019-01-10T13:31:41.712Z,6.60
2019-01-10T13:36:37.040Z,7.53
2019-01-10T13:41:31.693Z,6.70
2019-01-10T13:46:26.345Z,6.93
2019-01-10T13:51:21.136Z,7.43
2019-01-10T13:56:16.037Z,5.63
2019-01-10T14:01:10.708Z,6.83
2019-01-10T14:06:06.562Z,7.53
2019-01-10T14:11:01.564Z,6.90
2019-01-10T14:15:59.692Z,7.47
2019-01-10T14:20:56.243Z,6.47
2019-01-10T14:25:51.050Z,6.50
2019-01-10T14:30:45.701Z,8.07
2019-01-10T14:35:40.515Z,7.27
2019-01-10T14:40:39.147Z,6.00
2019-01-10T14:45:35.953Z,3.87
2019-01-10T14:50:30.742Z,5.10
2019-01-10T14:55:25.581Z,5.43
2019-01-10T15:00:24.191Z,5.13
2019-01-10T15:05:20.506Z,8.40
2019-01-10T15:10:16.196Z,7.63
2019-01-10T15:15:15.401Z,6.27
2019-01-10T15:20:19.100Z,4.63
2019-01-10T15:25:14.029Z,5.33
2019-01-10T15:30:24.359Z,6.47
2019-01-10T15:35:19.381Z,7.60
2019-01-10T15:40:26.841Z,7.70
2019-01-10T15:45:21.643Z,4.37
2019-01-10T15:50:20.938Z,5.97
2019-01-10T15:55:21.123Z,6.60
2019-01-10T16:00:19.626Z,5.00
2019-01-10T16:05:14.746Z,5.97
2019-01-10T16:10:13.643Z,5.37
2019-01-10T16:15:15.624Z,6.13
2019-01-10T16:20:13.711Z,4.00
2019-01-10T16:25:12.050Z,3.53
2019-01-10T16:30:14.229Z,4.37
2019-01-10T16:35:09.074Z,4.87
2019-01-10T16:40:05.242Z,5.33
2019-01-10T16:45:00.073Z,7.83
2019-01-10T16:49:54.658Z,6.77
2019-01-10T16:54:49.257Z,5.70
2019-01-10T16:59:43.979Z,5.80
2019-01-10T17:04:38.595Z,4.77
2019-01-10T17:09:33.196Z,6.23
2019-01-10T17:14:27.807Z,5.63
2019-01-10T17:19:22.414Z,4.77
2019-01-10T17:24:17.007Z,7.20
2019-01-10T17:29:11.700Z,5.27
2019-01-10T17:34:06.360Z,5.77
2019-01-10T17:39:01.044Z,6.57
2019-01-10T17:43:55.645Z,5.57
2019-01-10T17:48:50.281Z,5.77
2019-01-10T17:53:44.883Z,6.77
2019-01-10T17:58:39.492Z,5.80
2019-01-10T18:03:39.970Z,6.03
2019-01-10T18:08:30.416Z,6.40
2019-01-10T18:13:25.069Z,7.00
2019-01-10T18:18:19.725Z,6.73
2019-01-10T18:23:14.327Z,7.50
2019-01-10T18:28:09.051Z,6.13
2019-01-10T18:33:03.792Z,7.43
2019-01-10T18:37:58.583Z,6.53
2019-01-10T18:42:53.143Z,6.33
2019-01-10T18:47:47.825Z,7.60
2019-01-10T18:52:42.499Z,7.10
2019-01-10T18:57:37.105Z,7.43
2019-01-10T19:02:31.792Z,8.63
2019-01-10T19:07:26.399Z,7.43
2019-01-10T19:12:21.024Z,5.50
2019-01-10T19:17:15.662Z,6.67
2019-01-10T19:22:10.327Z,6.43
2019-01-10T19:27:05.018Z,8.07
2019-01-10T19:31:59.611Z,6.73
2019-01-10T19:36:54.218Z,8.13
2019-01-10T19:41:48.933Z,7.13
2019-01-10T19:46:43.661Z,7.60
2019-01-10T19:51:38.235Z,6.70
2019-01-10T19:56:32.943Z,8.00
2019-01-10T20:01:27.535Z,8.10
2019-01-10T20:06:22.502Z,6.23
2019-01-10T20:11:17.195Z,7.07
2019-01-10T20:16:11.955Z,7.87
2019-01-10T20:21:06.652Z,9.07
2019-01-10T20:26:01.317Z,8.57
2019-01-10T20:30:56.104Z,7.57
2019-01-10T20:35:50.923Z,7.83
2019-01-10T20:40:46.740Z,8.50
2019-01-10T20:45:41.718Z,8.27
2019-01-10T20:50:36.494Z,9.77
2019-01-10T20:55:31.156Z,6.70
2019-01-10T21:00:27.510Z,7.80
2019-01-10T21:05:22.166Z,8.03
2019-01-10T21:10:19.972Z,8.73
2019-01-10T21:15:26.855Z,7.80
2019-01-10T21:20:21.614Z,8.10
2019-01-10T21:25:16.441Z,8.43
2019-01-10T21:30:18.384Z,7.33
2019-01-10T21:35:13.147Z,9.13
2019-01-10T21:40:24.469Z,7.23
2019-01-10T21:45:22.706Z,8.87
2019-01-10T21:50:22.151Z,9.00
2019-01-10T21:55:17.032Z,8.30
2019-01-10T22:00:31.643Z,8.70
2019-01-10T22:05:26.484Z,7.30
2019-01-10T22:10:21.301Z,8.53
2019-01-10T22:15:18.282Z,7.30
2019-01-10T22:20:22.019Z,7.13
2019-01-10T22:25:16.667Z,9.23
2019-01-10T22:30:19.388Z,7.77
2019-01-10T22:35:18.055Z,8.30
2019-01-10T22:40:16.923Z,7.37
2019-01-10T22:45:12.530Z,10.13
2019-01-10T22:50:14.703Z,7.50
2019-01-10T22:55:13.263Z,6.90
2019-01-10T23:00:58.679Z,6.27
2019-01-10T23:05:53.339Z,6.77
2019-01-10T23:10:48.165Z,5.97
2019-01-10T23:15:42.758Z,6.67
2019-01-10T23:20:37.732Z,5.13
2019-01-10T23:25:32.316Z,7.13
2019-01-10T23:30:48.573Z,5.30
2019-01-10T23:35:43.202Z,6.40
2019-01-10T23:40:38.674Z,6.63
2019-01-10T23:45:33.353Z,6.10
2019-01-10T23:50:27.961Z,7.53
2019-01-10T23:55:22.547Z,7.47
